Terminal Aerodrome Forecast
Issued by NWS Louisville, KY

Home | Current Version | Previous Version | Text Only | Print | Product List | Glossary On
Versions: 1 2 3 4 5 6 7 8 9 10 11 12 13 14
578
FTUS43 KLMK 041728
TAFBWG
TAF
KBWG 041728Z 0418/0518 26008G18KT 6SM -SHRA FEW025 BKN060
      TEMPO 0418/0419 2SM -SHRA BKN025
     FM041900 29013G20KT P6SM VCSH BKN035
     FM050100 30008KT P6SM SCT035 SCT060
     FM051400 31010G18KT P6SM BKN025=

USA.gov is the U.S. government's official web portal to all federal, state and local government web resources and services.